createdAt,value
2018-03-14T00:01:44.389Z,10.05
2018-03-14T00:04:12.940Z,9.95
2018-03-14T00:06:41.098Z,8.68
2018-03-14T00:09:09.242Z,8.77
2018-03-14T00:11:37.396Z,10.13
2018-03-14T00:14:05.526Z,8.57
2018-03-14T00:16:33.668Z,8.98
2018-03-14T00:19:01.811Z,7.60
2018-03-14T00:21:29.956Z,9.23
2018-03-14T00:23:58.099Z,8.43
2018-03-14T00:26:26.251Z,12.32
2018-03-14T00:28:54.393Z,11.38
2018-03-14T00:31:22.622Z,8.80
2018-03-14T00:33:50.756Z,10.30
2018-03-14T00:36:18.902Z,9.95
2018-03-14T00:38:47.098Z,8.70
2018-03-14T00:41:15.263Z,9.48
2018-03-14T00:43:43.394Z,9.48
2018-03-14T00:46:11.550Z,8.18
2018-03-14T00:48:39.805Z,10.05
2018-03-14T00:51:07.949Z,9.60
2018-03-14T00:53:36.078Z,9.60
2018-03-14T00:56:04.214Z,10.03
2018-03-14T00:58:32.359Z,9.20
2018-03-14T01:01:00.494Z,10.90
2018-03-14T01:03:28.641Z,10.55
2018-03-14T01:05:56.786Z,10.85
2018-03-14T01:08:24.935Z,10.25
2018-03-14T01:10:53.110Z,11.63
2018-03-14T01:13:21.266Z,11.25
2018-03-14T01:15:49.762Z,11.60
2018-03-14T01:18:17.928Z,10.48
2018-03-14T01:20:46.138Z,10.63
2018-03-14T01:23:14.289Z,11.10
2018-03-14T01:25:42.430Z,11.65
2018-03-14T01:28:10.590Z,13.27
2018-03-14T01:30:38.731Z,13.07
2018-03-14T01:33:07.640Z,13.13
2018-03-14T01:35:35.791Z,11.40
2018-03-14T01:38:04.707Z,12.85
2018-03-14T01:40:32.862Z,13.73
2018-03-14T01:43:01.014Z,12.70
2018-03-14T01:45:29.167Z,14.73
2018-03-14T01:47:57.298Z,14.50
2018-03-14T01:50:25.550Z,14.77
2018-03-14T01:53:06.309Z,13.67
2018-03-14T01:55:34.465Z,15.83
2018-03-14T01:58:02.604Z,15.10
2018-03-14T02:00:30.765Z,15.37
2018-03-14T02:02:58.916Z,15.07
2018-03-14T02:05:27.842Z,14.80
2018-03-14T02:07:55.988Z,14.70
2018-03-14T02:10:24.153Z,15.38
2018-03-14T02:12:53.171Z,15.73
2018-03-14T02:15:21.300Z,14.93
2018-03-14T02:17:50.226Z,18.00
2018-03-14T02:20:18.365Z,17.23
2018-03-14T02:22:46.525Z,15.68
2018-03-14T02:25:14.658Z,15.67
2018-03-14T02:27:42.803Z,15.50
2018-03-14T02:30:11.044Z,14.82
2018-03-14T02:32:39.963Z,15.65
2018-03-14T02:35:08.098Z,16.70
2018-03-14T02:37:36.268Z,14.90
2018-03-14T02:40:04.422Z,16.33
2018-03-14T02:42:32.606Z,15.13
2018-03-14T02:45:00.810Z,16.42
2018-03-14T02:47:29.741Z,13.40
2018-03-14T02:49:57.887Z,14.90
2018-03-14T02:52:26.053Z,13.82
2018-03-14T02:54:54.232Z,14.15
2018-03-14T02:57:22.369Z,13.55
2018-03-14T02:59:50.524Z,13.57
2018-03-14T03:02:18.704Z,14.32
2018-03-14T03:04:46.885Z,11.70
2018-03-14T03:07:15.150Z,13.27
2018-03-14T03:09:43.321Z,13.45
2018-03-14T03:12:11.544Z,14.00
2018-03-14T03:14:39.690Z,12.95
2018-03-14T03:17:08.587Z,11.27
2018-03-14T03:19:37.518Z,11.90
2018-03-14T03:22:05.728Z,15.95
2018-03-14T03:24:33.874Z,12.55
2018-03-14T03:27:02.011Z,14.30
2018-03-14T03:29:30.176Z,12.85
2018-03-14T03:31:58.323Z,12.93
2018-03-14T03:34:27.222Z,12.50
2018-03-14T03:36:56.130Z,11.80
2018-03-14T03:39:24.283Z,12.45
2018-03-14T03:41:53.278Z,11.20
2018-03-14T03:44:21.439Z,11.20
2018-03-14T03:46:50.374Z,10.55
2018-03-14T03:49:18.505Z,10.35
2018-03-14T03:51:47.466Z,11.40
2018-03-14T03:54:15.564Z,11.52
2018-03-14T03:56:43.735Z,9.95
2018-03-14T03:59:12.673Z,11.88
2018-03-14T04:01:40.802Z,10.40
2018-03-14T04:04:09.740Z,10.00
2018-03-14T04:06:37.874Z,11.43
2018-03-14T04:09:06.031Z,12.07
2018-03-14T04:11:34.156Z,10.35
2018-03-14T04:14:02.306Z,9.02
2018-03-14T04:16:30.461Z,14.30
2018-03-14T04:18:58.635Z,13.13
2018-03-14T04:21:26.821Z,13.10
2018-03-14T04:23:55.722Z,9.82
2018-03-14T04:26:23.869Z,11.63
2018-03-14T04:28:52.018Z,9.88
2018-03-14T04:31:20.160Z,10.95
2018-03-14T04:33:48.326Z,9.30
2018-03-14T04:36:16.450Z,9.05
2018-03-14T04:38:56.705Z,10.57
2018-03-14T04:41:24.843Z,11.43
2018-03-14T04:43:52.993Z,10.45
2018-03-14T04:46:21.123Z,10.60
2018-03-14T04:48:49.251Z,10.55
2018-03-14T04:51:17.490Z,10.65
2018-03-14T04:53:45.618Z,10.80
2018-03-14T04:56:13.770Z,11.35
2018-03-14T04:58:41.921Z,10.85
2018-03-14T05:01:10.137Z,8.85
2018-03-14T05:03:38.274Z,8.60
2018-03-14T05:06:06.417Z,8.85
2018-03-14T05:08:34.542Z,10.05
2018-03-14T05:11:02.690Z,9.20
2018-03-14T05:13:30.843Z,8.23
2018-03-14T05:15:58.990Z,11.88
2018-03-14T05:18:27.140Z,9.80
2018-03-14T05:20:55.325Z,10.85
2018-03-14T05:23:24.235Z,10.27
2018-03-14T05:25:52.402Z,10.43
2018-03-14T05:28:20.514Z,9.55
2018-03-14T05:30:48.643Z,9.23
2018-03-14T05:33:16.793Z,10.52
2018-03-14T05:35:45.698Z,10.10
2018-03-14T05:38:13.868Z,10.23
2018-03-14T05:40:42.758Z,9.48
2018-03-14T05:43:11.669Z,9.63
2018-03-14T05:45:39.809Z,12.43
2018-03-14T05:48:08.723Z,10.88
2018-03-14T05:50:36.962Z,10.82
2018-03-14T05:53:05.897Z,10.35
2018-03-14T05:55:34.027Z,11.23
2018-03-14T05:58:02.937Z,9.48
2018-03-14T06:00:31.074Z,10.37
2018-03-14T06:02:59.227Z,11.45
2018-03-14T06:05:27.726Z,11.80
2018-03-14T06:07:55.877Z,10.93
2018-03-14T06:10:24.021Z,12.60
2018-03-14T06:12:52.182Z,12.60
2018-03-14T06:15:20.312Z,11.82
2018-03-14T06:17:48.458Z,12.68
2018-03-14T06:20:16.662Z,12.07
2018-03-14T06:22:44.808Z,12.45
2018-03-14T06:25:12.946Z,12.30
2018-03-14T06:27:41.090Z,12.83
2018-03-14T06:30:10.012Z,10.10
2018-03-14T06:32:38.170Z,10.20
2018-03-14T06:35:06.314Z,11.43
2018-03-14T06:37:34.455Z,13.30
2018-03-14T06:40:02.593Z,11.67
2018-03-14T06:42:30.752Z,12.87
2018-03-14T06:44:59.654Z,12.80
2018-03-14T06:47:27.829Z,14.40
2018-03-14T06:49:55.991Z,12.85
2018-03-14T06:52:24.115Z,12.17
2018-03-14T06:54:52.412Z,12.93
2018-03-14T06:57:20.516Z,11.70
2018-03-14T07:00:00.566Z,13.40
2018-03-14T07:02:40.717Z,11.90
2018-03-14T07:05:20.655Z,11.57
2018-03-14T07:07:49.554Z,11.27
2018-03-14T07:10:17.694Z,12.00
2018-03-14T07:12:46.626Z,13.10
2018-03-14T07:15:14.783Z,14.00
2018-03-14T07:17:42.922Z,13.20
2018-03-14T07:20:11.090Z,11.00
2018-03-14T07:22:39.214Z,13.13
2018-03-14T07:25:07.333Z,10.93
2018-03-14T07:27:35.494Z,10.80
2018-03-14T07:30:03.618Z,10.50
2018-03-14T07:32:31.759Z,12.33
2018-03-14T07:35:00.654Z,11.30
2018-03-14T07:37:28.806Z,11.30
2018-03-14T07:39:56.928Z,11.93
2018-03-14T07:42:25.066Z,11.37
2018-03-14T07:44:53.961Z,10.53
2018-03-14T07:47:22.106Z,12.27
2018-03-14T07:49:50.242Z,14.53
2018-03-14T07:52:18.394Z,11.97
2018-03-14T07:54:46.541Z,12.85
2018-03-14T07:57:14.674Z,11.73
2018-03-14T07:59:42.810Z,14.33
2018-03-14T08:02:10.970Z,15.07
2018-03-14T08:04:39.102Z,14.53
2018-03-14T08:07:07.256Z,12.10
2018-03-14T08:09:36.146Z,12.70
2018-03-14T08:12:04.302Z,14.20
2018-03-14T08:14:32.442Z,11.80
2018-03-14T08:17:00.567Z,12.87
2018-03-14T08:19:28.730Z,14.53
2018-03-14T08:21:57.634Z,13.20
2018-03-14T08:24:25.791Z,16.60
2018-03-14T08:26:54.686Z,14.83
2018-03-14T08:29:22.856Z,10.70
2018-03-14T08:31:51.752Z,12.13
2018-03-14T08:34:19.940Z,13.30
2018-03-14T08:36:48.027Z,14.30
2018-03-14T08:39:16.177Z,13.77
2018-03-14T08:41:44.306Z,15.30
2018-03-14T08:44:12.448Z,12.13
2018-03-14T08:46:40.630Z,12.40
2018-03-14T08:49:08.780Z,12.10
2018-03-14T08:51:36.915Z,14.50
2018-03-14T08:54:05.042Z,11.27
2018-03-14T08:56:33.194Z,11.30
2018-03-14T08:59:01.344Z,10.30
2018-03-14T09:01:29.482Z,10.87
2018-03-14T09:03:57.606Z,11.00
2018-03-14T09:06:25.754Z,14.97
2018-03-14T09:08:53.884Z,12.67
2018-03-14T09:11:22.100Z,11.83
2018-03-14T09:13:50.579Z,12.37
2018-03-14T09:16:18.722Z,12.70
2018-03-14T09:18:46.851Z,11.67
2018-03-14T09:21:15.757Z,11.70
2018-03-14T09:23:44.718Z,10.40
2018-03-14T09:26:12.899Z,14.23
2018-03-14T09:28:41.019Z,9.50
2018-03-14T09:31:09.148Z,13.10
2018-03-14T09:33:38.053Z,12.80
2018-03-14T09:36:06.969Z,13.13
2018-03-14T09:38:35.110Z,10.40
2018-03-14T09:41:03.252Z,13.20
2018-03-14T09:43:31.400Z,12.27
2018-03-14T09:45:59.582Z,12.60
2018-03-14T09:48:27.694Z,11.93
2018-03-14T09:50:55.832Z,11.57
2018-03-14T09:53:23.995Z,10.33
2018-03-14T09:55:52.144Z,11.40
2018-03-14T09:58:20.268Z,12.80
2018-03-14T10:00:48.461Z,14.90
2018-03-14T10:03:17.357Z,13.13
2018-03-14T10:05:45.859Z,10.97
2018-03-14T10:08:13.962Z,11.20
2018-03-14T10:10:42.114Z,12.53
2018-03-14T10:13:10.275Z,12.40
2018-03-14T10:15:38.430Z,12.10
2018-03-14T10:18:06.563Z,9.73
2018-03-14T10:20:34.702Z,13.47
2018-03-14T10:23:02.830Z,11.53
2018-03-14T10:25:31.058Z,15.40
2018-03-14T10:27:59.150Z,12.67
2018-03-14T10:30:28.746Z,11.67
2018-03-14T10:32:56.881Z,11.50
2018-03-14T10:35:25.035Z,10.27
2018-03-14T10:37:53.159Z,13.03
2018-03-14T10:40:21.288Z,17.73
2018-03-14T10:42:49.450Z,14.00
2018-03-14T10:45:17.584Z,14.17
2018-03-14T10:47:45.728Z,11.87
2018-03-14T10:50:13.862Z,13.10
2018-03-14T10:52:42.018Z,15.20
2018-03-14T10:55:10.163Z,14.90
2018-03-14T10:57:38.323Z,12.77
2018-03-14T11:00:06.457Z,13.23
2018-03-14T11:02:34.602Z,12.93
2018-03-14T11:05:03.491Z,14.63
2018-03-14T11:07:31.646Z,13.83
2018-03-14T11:10:00.546Z,12.60
2018-03-14T11:12:29.459Z,11.57
2018-03-14T11:14:57.577Z,12.57
2018-03-14T11:17:27.342Z,11.40
2018-03-14T11:19:55.479Z,13.97
2018-03-14T11:22:23.633Z,15.37
2018-03-14T11:24:51.907Z,11.70
2018-03-14T11:27:20.035Z,14.67
2018-03-14T11:29:48.201Z,12.37
2018-03-14T11:32:17.095Z,13.50
2018-03-14T11:34:45.235Z,11.70
2018-03-14T11:37:13.359Z,11.53
2018-03-14T11:39:41.516Z,9.50
2018-03-14T11:42:09.642Z,10.13
2018-03-14T11:44:38.629Z,12.77
2018-03-14T11:47:06.713Z,10.43
2018-03-14T11:49:35.618Z,10.43
2018-03-14T11:52:03.760Z,11.80
2018-03-14T11:54:31.898Z,12.37
2018-03-14T11:57:00.036Z,14.07
2018-03-14T11:59:28.179Z,14.07
2018-03-14T12:01:57.066Z,11.20
2018-03-14T12:04:26.008Z,11.80
2018-03-14T12:06:54.184Z,11.23
2018-03-14T12:09:22.358Z,13.23
2018-03-14T12:11:50.503Z,13.77
2018-03-14T12:14:18.640Z,12.00
2018-03-14T12:16:46.784Z,14.67
2018-03-14T12:19:14.942Z,15.43
2018-03-14T12:21:43.105Z,16.00
2018-03-14T12:24:11.239Z,13.97
2018-03-14T12:26:40.178Z,16.73
2018-03-14T12:29:08.352Z,12.43
2018-03-14T12:31:36.478Z,13.97
2018-03-14T12:34:04.609Z,12.53
2018-03-14T12:36:32.758Z,12.93
2018-03-14T12:39:00.894Z,12.63
2018-03-14T12:41:29.039Z,10.93
2018-03-14T12:43:57.299Z,11.37
2018-03-14T12:46:25.440Z,11.27
2018-03-14T12:48:53.573Z,10.40
2018-03-14T12:51:21.738Z,11.30
2018-03-14T12:53:51.034Z,11.43
2018-03-14T12:56:19.154Z,11.30
2018-03-14T12:58:47.304Z,12.60
2018-03-14T13:01:15.430Z,11.10
2018-03-14T13:03:43.584Z,14.33
2018-03-14T13:06:11.711Z,11.17
2018-03-14T13:08:39.856Z,15.10
2018-03-14T13:11:07.996Z,13.10
2018-03-14T13:13:36.146Z,11.00
2018-03-14T13:16:04.293Z,9.33
2018-03-14T13:18:33.217Z,9.30
2018-03-14T13:21:01.345Z,11.80
2018-03-14T13:23:30.254Z,11.50
2018-03-14T13:25:58.385Z,9.90
2018-03-14T13:28:26.545Z,12.60
2018-03-14T13:30:54.666Z,8.90
2018-03-14T13:33:22.806Z,10.83
2018-03-14T13:35:50.966Z,11.77
2018-03-14T13:38:19.097Z,9.67
2018-03-14T13:40:47.255Z,10.67
2018-03-14T13:43:16.254Z,9.60
2018-03-14T13:45:44.423Z,10.03
2018-03-14T13:48:12.566Z,11.10
2018-03-14T13:50:41.475Z,11.50
2018-03-14T13:53:09.622Z,10.30
2018-03-14T13:55:38.666Z,10.27
2018-03-14T13:58:06.782Z,11.70
2018-03-14T14:00:35.270Z,11.40
2018-03-14T14:03:03.421Z,11.47
2018-03-14T14:05:31.569Z,12.87
2018-03-14T14:07:59.693Z,11.60
2018-03-14T14:10:28.590Z,9.70
2018-03-14T14:12:56.732Z,10.60
2018-03-14T14:15:24.850Z,9.83
2018-03-14T14:17:53.002Z,9.97
2018-03-14T14:20:21.924Z,10.70
2018-03-14T14:22:50.078Z,10.27
2018-03-14T14:25:18.262Z,10.37
2018-03-14T14:27:46.412Z,10.50
2018-03-14T14:30:14.534Z,10.63
2018-03-14T14:32:42.678Z,8.87
2018-03-14T14:35:10.801Z,7.57
2018-03-14T14:37:38.946Z,9.73
2018-03-14T14:40:07.072Z,8.30
2018-03-14T14:42:35.256Z,9.73
2018-03-14T14:45:03.378Z,9.43
2018-03-14T14:47:31.498Z,8.17
2018-03-14T14:49:59.642Z,11.30
2018-03-14T14:52:27.774Z,10.60
2018-03-14T14:54:55.935Z,10.73
2018-03-14T14:57:24.060Z,9.87
2018-03-14T14:59:52.962Z,8.97
2018-03-14T15:02:21.095Z,7.03
2018-03-14T15:04:49.250Z,7.27
2018-03-14T15:07:17.378Z,7.37
2018-03-14T15:09:45.507Z,8.87
2018-03-14T15:12:13.618Z,6.40
2018-03-14T15:14:41.788Z,7.27
2018-03-14T15:17:10.671Z,7.53
2018-03-14T15:19:38.814Z,6.47
2018-03-14T15:22:06.931Z,7.80
2018-03-14T15:24:35.077Z,7.37
2018-03-14T15:27:03.298Z,9.37
2018-03-14T15:29:31.416Z,7.63
2018-03-14T15:31:59.530Z,7.23
2018-03-14T15:34:28.430Z,7.27
2018-03-14T15:36:56.567Z,8.30
2018-03-14T15:39:24.698Z,7.20
2018-03-14T15:41:52.826Z,8.07
2018-03-14T15:44:20.945Z,10.23
2018-03-14T15:46:49.945Z,7.00
2018-03-14T15:49:18.153Z,8.50
2018-03-14T15:51:47.971Z,8.40
2018-03-14T15:54:16.162Z,10.37
2018-03-14T15:56:44.319Z,9.20
2018-03-14T15:59:12.438Z,8.60
2018-03-14T16:01:41.363Z,11.47
2018-03-14T16:04:09.496Z,8.57
2018-03-14T16:06:37.634Z,9.53
2018-03-14T16:09:05.944Z,8.83
2018-03-14T16:11:34.182Z,8.90
2018-03-14T16:14:02.302Z,8.80
2018-03-14T16:16:31.201Z,10.17
2018-03-14T16:18:59.337Z,7.73
2018-03-14T16:21:27.479Z,10.30
2018-03-14T16:23:55.642Z,9.50
2018-03-14T16:26:23.778Z,12.33
2018-03-14T16:28:51.930Z,8.10
2018-03-14T16:31:20.110Z,8.10
2018-03-14T16:33:48.284Z,8.33
2018-03-14T16:36:16.400Z,9.23
2018-03-14T16:38:44.546Z,9.10
2018-03-14T16:41:12.698Z,10.50
2018-03-14T16:43:40.838Z,8.83
2018-03-14T16:46:08.974Z,10.87
2018-03-14T16:48:37.110Z,9.70
2018-03-14T16:51:06.004Z,9.07
2018-03-14T16:53:34.904Z,9.60
2018-03-14T16:56:03.027Z,9.43
2018-03-14T16:58:31.171Z,9.30
2018-03-14T17:00:59.291Z,9.13
2018-03-14T17:03:27.442Z,10.70
2018-03-14T17:05:55.571Z,9.77
2018-03-14T17:08:23.698Z,9.90
2018-03-14T17:10:51.848Z,10.57
2018-03-14T17:13:19.970Z,11.77
2018-03-14T17:15:48.884Z,10.93
2018-03-14T17:18:17.002Z,9.70
2018-03-14T17:20:45.145Z,12.03
2018-03-14T17:23:13.262Z,11.10
2018-03-14T17:25:42.171Z,10.90
2018-03-14T17:28:10.303Z,11.27
2018-03-14T17:30:38.510Z,10.30
2018-03-14T17:33:06.574Z,11.83
2018-03-14T17:35:34.746Z,12.67
2018-03-14T17:38:02.866Z,12.10
2018-03-14T17:40:31.015Z,12.43
2018-03-14T17:42:59.138Z,13.30
2018-03-14T17:45:27.317Z,13.50
2018-03-14T17:47:56.214Z,13.27
2018-03-14T17:50:24.393Z,15.97
2018-03-14T17:52:53.287Z,14.90
2018-03-14T17:55:21.417Z,14.37
2018-03-14T17:57:49.947Z,15.73
2018-03-14T18:00:18.828Z,15.80
2018-03-14T18:02:46.971Z,16.77
2018-03-14T18:05:15.109Z,18.50
2018-03-14T18:07:44.035Z,16.97
2018-03-14T18:10:12.522Z,15.77
2018-03-14T18:12:40.682Z,18.50
2018-03-14T18:15:08.822Z,16.37
2018-03-14T18:17:36.962Z,16.60
2018-03-14T18:20:05.092Z,15.37
2018-03-14T18:22:33.238Z,15.13
2018-03-14T18:25:01.371Z,18.13
2018-03-14T18:27:29.585Z,17.40
2018-03-14T18:29:58.500Z,19.07
2018-03-14T18:32:26.644Z,22.53
2018-03-14T18:34:54.777Z,19.43
2018-03-14T18:37:22.922Z,21.20
2018-03-14T18:39:51.826Z,16.13
2018-03-14T18:42:20.729Z,18.70
2018-03-14T18:44:48.863Z,17.03
2018-03-14T18:47:17.011Z,16.10
2018-03-14T18:49:45.575Z,17.87
2018-03-14T18:52:13.749Z,19.00
2018-03-14T18:54:41.886Z,21.15
2018-03-14T18:57:10.790Z,19.13
2018-03-14T18:59:38.926Z,18.33
2018-03-14T19:02:07.124Z,21.35
2018-03-14T19:04:35.231Z,20.95
2018-03-14T19:07:03.369Z,19.45
2018-03-14T19:09:31.531Z,21.77
2018-03-14T19:11:59.784Z,25.58
2018-03-14T19:14:27.939Z,23.73
2018-03-14T19:16:56.085Z,22.23
2018-03-14T19:19:24.571Z,25.60
2018-03-14T19:21:52.685Z,20.62
2018-03-14T19:24:21.611Z,22.73
2018-03-14T19:26:49.738Z,21.40
2018-03-14T19:29:18.649Z,22.80
2018-03-14T19:31:46.811Z,20.00
2018-03-14T19:34:15.748Z,21.48
2018-03-14T19:36:43.886Z,23.02
2018-03-14T19:39:12.782Z,19.23
2018-03-14T19:41:41.035Z,23.43
2018-03-14T19:44:09.955Z,21.20
2018-03-14T19:46:38.095Z,24.37
2018-03-14T19:49:07.002Z,23.35
2018-03-14T19:51:35.158Z,28.20
2018-03-14T19:54:04.092Z,26.17
2018-03-14T19:56:32.375Z,25.77
2018-03-14T19:59:00.571Z,24.55
2018-03-14T20:01:28.786Z,22.62
2018-03-14T20:03:56.934Z,23.25
2018-03-14T20:06:30.500Z,27.13
2018-03-14T20:09:03.243Z,23.80
2018-03-14T20:11:33.676Z,27.45
2018-03-14T20:14:07.588Z,36.13
2018-03-14T20:16:36.167Z,28.92
2018-03-14T20:19:05.943Z,23.73
2018-03-14T20:21:38.731Z,24.25
2018-03-14T20:24:10.303Z,25.98
2018-03-14T20:26:44.779Z,26.12
2018-03-14T20:29:15.690Z,25.33
2018-03-14T20:31:48.628Z,26.15
2018-03-14T20:34:18.153Z,29.45
2018-03-14T20:36:47.618Z,28.83
2018-03-14T20:39:17.635Z,28.67
2018-03-14T20:41:46.783Z,29.40
2018-03-14T20:44:21.200Z,29.90
2018-03-14T20:46:54.100Z,25.52
2018-03-14T20:49:23.704Z,26.55
2018-03-14T20:51:54.301Z,27.58
2018-03-14T20:54:29.159Z,26.55
2018-03-14T20:57:00.932Z,25.85
2018-03-14T20:59:32.119Z,27.77
2018-03-14T21:02:05.813Z,24.73
2018-03-14T21:04:35.224Z,25.40
2018-03-14T21:07:03.374Z,25.40
2018-03-14T21:09:32.349Z,25.62
2018-03-14T21:12:00.556Z,26.83
2018-03-14T21:14:28.725Z,26.48
2018-03-14T21:16:57.597Z,26.10
2018-03-14T21:19:26.525Z,23.40
2018-03-14T21:21:54.660Z,24.15
2018-03-14T21:24:22.823Z,26.80
2018-03-14T21:26:50.983Z,27.30
2018-03-14T21:29:19.139Z,25.65
2018-03-14T21:31:47.283Z,23.80
2018-03-14T21:34:15.446Z,25.10
2018-03-14T21:36:43.585Z,28.35
2018-03-14T21:39:11.711Z,24.80
2018-03-14T21:41:39.865Z,28.00
2018-03-14T21:44:08.009Z,25.45
2018-03-14T21:46:36.227Z,27.13
2018-03-14T21:49:04.367Z,26.48
2018-03-14T21:51:32.515Z,26.98
2018-03-14T21:54:00.679Z,26.00
2018-03-14T21:56:28.903Z,25.90
2018-03-14T21:58:56.970Z,24.50
2018-03-14T22:01:25.130Z,25.80
2018-03-14T22:03:53.271Z,31.17
2018-03-14T22:06:21.526Z,25.65
2018-03-14T22:08:49.654Z,28.67
2018-03-14T22:11:17.752Z,24.73
2018-03-14T22:13:45.887Z,30.62
2018-03-14T22:16:14.774Z,26.83
2018-03-14T22:18:43.690Z,26.58
2018-03-14T22:21:11.811Z,25.48
2018-03-14T22:23:39.972Z,25.88
2018-03-14T22:26:08.135Z,25.85
2018-03-14T22:28:36.297Z,29.30
2018-03-14T22:31:04.439Z,28.77
2018-03-14T22:33:32.606Z,30.40
2018-03-14T22:36:00.750Z,25.50
2018-03-14T22:38:28.904Z,31.60
2018-03-14T22:40:57.114Z,28.10
2018-03-14T22:43:25.258Z,28.92
2018-03-14T22:45:53.389Z,28.67
2018-03-14T22:48:21.560Z,29.08
2018-03-14T22:50:49.693Z,27.37
2018-03-14T22:53:18.694Z,27.85
2018-03-14T22:55:46.838Z,33.42
2018-03-14T22:58:14.984Z,32.60
2018-03-14T23:00:43.149Z,32.10
2018-03-14T23:03:12.053Z,28.98
2018-03-14T23:05:40.204Z,32.40
2018-03-14T23:08:08.370Z,33.35
2018-03-14T23:10:36.602Z,27.83
2018-03-14T23:13:04.745Z,31.23
2018-03-14T23:15:32.879Z,30.35
2018-03-14T23:18:01.010Z,29.02
2018-03-14T23:20:29.147Z,28.92
2018-03-14T23:22:57.278Z,30.17
2018-03-14T23:25:25.418Z,32.53
2018-03-14T23:27:53.555Z,32.42
2018-03-14T23:30:21.719Z,30.00
2018-03-14T23:32:49.877Z,28.62
2018-03-14T23:35:18.020Z,35.10
2018-03-14T23:37:46.176Z,25.77
2018-03-14T23:40:14.324Z,28.77
2018-03-14T23:42:42.475Z,29.30
2018-03-14T23:45:10.612Z,27.48
2018-03-14T23:47:39.509Z,63.45
2018-03-14T23:50:08.470Z,28.67
2018-03-14T23:52:36.643Z,26.98
2018-03-14T23:55:05.520Z,27.42
2018-03-14T23:57:33.658Z,28.60
